sensor_id;sensor_type;location;lat;lon;timestamp;P1;durP1;ratioP1;P2;durP2;ratioP2
56083;SDS011;41958;52.416;13.428;2023-02-15T00:00:52;36.97;;;16.30;;
56083;SDS011;41958;52.416;13.428;2023-02-15T00:03:20;41.00;;;16.10;;
56083;SDS011;41958;52.416;13.428;2023-02-15T00:05:45;40.55;;;17.15;;
56083;SDS011;41958;52.416;13.428;2023-02-15T00:08:10;38.17;;;15.73;;
56083;SDS011;41958;52.416;13.428;2023-02-15T00:10:36;40.00;;;16.80;;
56083;SDS011;41958;52.416;13.428;2023-02-15T00:13:01;38.63;;;16.05;;
56083;SDS011;41958;52.416;13.428;2023-02-15T00:15:26;41.95;;;16.75;;
56083;SDS011;41958;52.416;13.428;2023-02-15T00:17:51;40.05;;;16.67;;
56083;SDS011;41958;52.416;13.428;2023-02-15T00:20:17;35.42;;;15.50;;
56083;SDS011;41958;52.416;13.428;2023-02-15T00:22:43;39.95;;;15.85;;
56083;SDS011;41958;52.416;13.428;2023-02-15T00:25:08;36.08;;;16.52;;
56083;SDS011;41958;52.416;13.428;2023-02-15T00:27:33;40.20;;;17.23;;
56083;SDS011;41958;52.416;13.428;2023-02-15T00:29:59;38.78;;;15.80;;
56083;SDS011;41958;52.416;13.428;2023-02-15T00:32:24;40.00;;;15.00;;
56083;SDS011;41958;52.416;13.428;2023-02-15T00:34:50;38.38;;;15.45;;
56083;SDS011;41958;52.416;13.428;2023-02-15T00:37:15;43.35;;;17.38;;
56083;SDS011;41958;52.416;13.428;2023-02-15T00:39:40;38.53;;;16.05;;
56083;SDS011;41958;52.416;13.428;2023-02-15T00:42:05;42.50;;;16.85;;
56083;SDS011;41958;52.416;13.428;2023-02-15T00:44:31;42.13;;;17.13;;
56083;SDS011;41958;52.416;13.428;2023-02-15T00:46:56;37.08;;;16.17;;
56083;SDS011;41958;52.416;13.428;2023-02-15T00:49:21;37.85;;;17.33;;
56083;SDS011;41958;52.416;13.428;2023-02-15T00:51:46;37.38;;;16.27;;
56083;SDS011;41958;52.416;13.428;2023-02-15T00:54:12;33.72;;;14.65;;
56083;SDS011;41958;52.416;13.428;2023-02-15T00:56:37;41.53;;;16.25;;
56083;SDS011;41958;52.416;13.428;2023-02-15T00:59:02;40.75;;;16.40;;
56083;SDS011;41958;52.416;13.428;2023-02-15T01:01:27;37.65;;;15.48;;
56083;SDS011;41958;52.416;13.428;2023-02-15T01:03:53;39.20;;;15.50;;
56083;SDS011;41958;52.416;13.428;2023-02-15T01:06:18;42.88;;;16.30;;
56083;SDS011;41958;52.416;13.428;2023-02-15T01:08:44;40.78;;;16.02;;
56083;SDS011;41958;52.416;13.428;2023-02-15T01:11:11;36.10;;;14.85;;
56083;SDS011;41958;52.416;13.428;2023-02-15T01:13:40;38.42;;;15.93;;
56083;SDS011;41958;52.416;13.428;2023-02-15T01:16:06;39.95;;;15.93;;
56083;SDS011;41958;52.416;13.428;2023-02-15T01:18:31;42.28;;;15.43;;
56083;SDS011;41958;52.416;13.428;2023-02-15T01:20:57;41.97;;;15.98;;
56083;SDS011;41958;52.416;13.428;2023-02-15T01:23:22;36.22;;;15.60;;
56083;SDS011;41958;52.416;13.428;2023-02-15T01:25:48;40.78;;;16.42;;
56083;SDS011;41958;52.416;13.428;2023-02-15T01:28:13;39.65;;;14.65;;
56083;SDS011;41958;52.416;13.428;2023-02-15T01:30:40;36.85;;;15.02;;
56083;SDS011;41958;52.416;13.428;2023-02-15T01:33:06;40.33;;;15.30;;
56083;SDS011;41958;52.416;13.428;2023-02-15T01:35:31;40.65;;;16.48;;
56083;SDS011;41958;52.416;13.428;2023-02-15T01:37:57;41.80;;;16.08;;
56083;SDS011;41958;52.416;13.428;2023-02-15T01:40:22;39.90;;;16.52;;
56083;SDS011;41958;52.416;13.428;2023-02-15T01:42:52;37.85;;;15.32;;
56083;SDS011;41958;52.416;13.428;2023-02-15T01:50:42;36.95;;;14.65;;
56083;SDS011;41958;52.416;13.428;2023-02-15T01:58:27;46.58;;;16.45;;
56083;SDS011;41958;52.416;13.428;2023-02-15T02:00:54;41.83;;;16.65;;
56083;SDS011;41958;52.416;13.428;2023-02-15T02:03:24;50.10;;;18.75;;
56083;SDS011;41958;52.416;13.428;2023-02-15T02:06:01;44.72;;;17.45;;
56083;SDS011;41958;52.416;13.428;2023-02-15T02:08:26;49.20;;;18.05;;
56083;SDS011;41958;52.416;13.428;2023-02-15T02:10:52;48.50;;;19.15;;
56083;SDS011;41958;52.416;13.428;2023-02-15T02:13:17;55.50;;;20.02;;
56083;SDS011;41958;52.416;13.428;2023-02-15T02:15:46;58.97;;;19.60;;
56083;SDS011;41958;52.416;13.428;2023-02-15T02:18:35;61.28;;;20.95;;
56083;SDS011;41958;52.416;13.428;2023-02-15T02:21:39;65.55;;;21.63;;
56083;SDS011;41958;52.416;13.428;2023-02-15T02:35:27;78.43;;;22.95;;
56083;SDS011;41958;52.416;13.428;2023-02-15T02:40:58;74.50;;;25.33;;
56083;SDS011;41958;52.416;13.428;2023-02-15T02:43:41;74.72;;;24.85;;
56083;SDS011;41958;52.416;13.428;2023-02-15T02:48:40;71.85;;;24.40;;
56083;SDS011;41958;52.416;13.428;2023-02-15T02:51:05;72.10;;;24.10;;
56083;SDS011;41958;52.416;13.428;2023-02-15T02:53:30;72.47;;;23.25;;
56083;SDS011;41958;52.416;13.428;2023-02-15T02:56:13;63.47;;;22.05;;
56083;SDS011;41958;52.416;13.428;2023-02-15T02:58:48;70.85;;;24.35;;
56083;SDS011;41958;52.416;13.428;2023-02-15T03:01:23;74.13;;;25.27;;
56083;SDS011;41958;52.416;13.428;2023-02-15T03:04:05;70.60;;;23.10;;
56083;SDS011;41958;52.416;13.428;2023-02-15T03:09:12;67.50;;;22.10;;
56083;SDS011;41958;52.416;13.428;2023-02-15T03:11:43;68.22;;;22.95;;
56083;SDS011;41958;52.416;13.428;2023-02-15T03:14:10;64.68;;;24.25;;
56083;SDS011;41958;52.416;13.428;2023-02-15T03:16:38;65.10;;;22.30;;
56083;SDS011;41958;52.416;13.428;2023-02-15T03:19:11;70.07;;;22.80;;
56083;SDS011;41958;52.416;13.428;2023-02-15T03:21:48;64.28;;;22.83;;
56083;SDS011;41958;52.416;13.428;2023-02-15T03:24:22;68.22;;;23.52;;
56083;SDS011;41958;52.416;13.428;2023-02-15T03:26:50;73.40;;;23.63;;
56083;SDS011;41958;52.416;13.428;2023-02-15T03:29:17;69.10;;;23.42;;
56083;SDS011;41958;52.416;13.428;2023-02-15T03:31:45;70.57;;;23.52;;
56083;SDS011;41958;52.416;13.428;2023-02-15T03:34:13;69.95;;;24.67;;
56083;SDS011;41958;52.416;13.428;2023-02-15T03:42:31;74.10;;;24.50;;
56083;SDS011;41958;52.416;13.428;2023-02-15T03:44:49;83.10;;;24.13;;
56083;SDS011;41958;52.416;13.428;2023-02-15T03:47:24;67.97;;;23.33;;
56083;SDS011;41958;52.416;13.428;2023-02-15T03:49:55;72.85;;;22.98;;
56083;SDS011;41958;52.416;13.428;2023-02-15T03:52:25;72.70;;;24.73;;
56083;SDS011;41958;52.416;13.428;2023-02-15T03:54:54;73.53;;;24.20;;
56083;SDS011;41958;52.416;13.428;2023-02-15T03:57:23;78.38;;;24.55;;
56083;SDS011;41958;52.416;13.428;2023-02-15T04:06:01;73.72;;;24.45;;
56083;SDS011;41958;52.416;13.428;2023-02-15T04:08:27;76.10;;;24.65;;
56083;SDS011;41958;52.416;13.428;2023-02-15T04:11:11;76.78;;;24.10;;
56083;SDS011;41958;52.416;13.428;2023-02-15T04:13:36;65.85;;;22.80;;
56083;SDS011;41958;52.416;13.428;2023-02-15T04:16:02;72.07;;;24.13;;
56083;SDS011;41958;52.416;13.428;2023-02-15T04:18:34;66.35;;;23.23;;
56083;SDS011;41958;52.416;13.428;2023-02-15T04:21:21;71.18;;;23.35;;
56083;SDS011;41958;52.416;13.428;2023-02-15T04:24:07;65.68;;;22.80;;
56083;SDS011;41958;52.416;13.428;2023-02-15T04:26:52;66.70;;;22.63;;
56083;SDS011;41958;52.416;13.428;2023-02-15T04:29:18;71.53;;;23.85;;
56083;SDS011;41958;52.416;13.428;2023-02-15T04:31:44;72.13;;;23.42;;
56083;SDS011;41958;52.416;13.428;2023-02-15T04:34:10;67.97;;;22.63;;
56083;SDS011;41958;52.416;13.428;2023-02-15T04:36:36;66.63;;;21.98;;
56083;SDS011;41958;52.416;13.428;2023-02-15T04:39:02;74.88;;;22.85;;
56083;SDS011;41958;52.416;13.428;2023-02-15T04:41:27;72.03;;;24.33;;
56083;SDS011;41958;52.416;13.428;2023-02-15T04:43:52;75.28;;;24.75;;
56083;SDS011;41958;52.416;13.428;2023-02-15T04:46:18;73.35;;;23.10;;
56083;SDS011;41958;52.416;13.428;2023-02-15T04:48:43;70.68;;;23.70;;
56083;SDS011;41958;52.416;13.428;2023-02-15T04:51:08;70.88;;;24.05;;
56083;SDS011;41958;52.416;13.428;2023-02-15T04:53:34;73.75;;;23.02;;
56083;SDS011;41958;52.416;13.428;2023-02-15T04:56:00;69.47;;;23.20;;
56083;SDS011;41958;52.416;13.428;2023-02-15T04:58:25;70.50;;;23.95;;
56083;SDS011;41958;52.416;13.428;2023-02-15T05:00:50;61.67;;;23.25;;
56083;SDS011;41958;52.416;13.428;2023-02-15T05:03:19;67.57;;;22.13;;
56083;SDS011;41958;52.416;13.428;2023-02-15T05:05:44;66.40;;;22.25;;
56083;SDS011;41958;52.416;13.428;2023-02-15T05:08:10;69.25;;;22.85;;
56083;SDS011;41958;52.416;13.428;2023-02-15T05:10:36;71.70;;;22.27;;
56083;SDS011;41958;52.416;13.428;2023-02-15T05:13:01;71.43;;;22.17;;
56083;SDS011;41958;52.416;13.428;2023-02-15T05:15:27;73.75;;;22.98;;
56083;SDS011;41958;52.416;13.428;2023-02-15T05:17:52;70.22;;;23.73;;
56083;SDS011;41958;52.416;13.428;2023-02-15T05:20:17;71.22;;;22.42;;
56083;SDS011;41958;52.416;13.428;2023-02-15T05:22:43;72.88;;;23.48;;
56083;SDS011;41958;52.416;13.428;2023-02-15T05:25:09;77.75;;;24.00;;
56083;SDS011;41958;52.416;13.428;2023-02-15T05:27:52;77.45;;;23.48;;
56083;SDS011;41958;52.416;13.428;2023-02-15T05:30:36;77.97;;;22.85;;
56083;SDS011;41958;52.416;13.428;2023-02-15T05:33:02;72.60;;;23.08;;
56083;SDS011;41958;52.416;13.428;2023-02-15T05:35:27;71.85;;;24.55;;
56083;SDS011;41958;52.416;13.428;2023-02-15T05:37:52;76.43;;;24.30;;
56083;SDS011;41958;52.416;13.428;2023-02-15T05:40:18;83.85;;;25.00;;
56083;SDS011;41958;52.416;13.428;2023-02-15T05:42:43;95.20;;;24.23;;
56083;SDS011;41958;52.416;13.428;2023-02-15T05:45:08;87.72;;;24.25;;
56083;SDS011;41958;52.416;13.428;2023-02-15T05:47:34;82.30;;;22.88;;
56083;SDS011;41958;52.416;13.428;2023-02-15T05:49:59;185.73;;;27.00;;
56083;SDS011;41958;52.416;13.428;2023-02-15T05:52:24;148.88;;;27.52;;
56083;SDS011;41958;52.416;13.428;2023-02-15T05:54:49;79.22;;;21.98;;
56083;SDS011;41958;52.416;13.428;2023-02-15T05:57:15;197.77;;;27.10;;
56083;SDS011;41958;52.416;13.428;2023-02-15T05:59:40;89.10;;;23.40;;
56083;SDS011;41958;52.416;13.428;2023-02-15T06:02:05;123.47;;;23.60;;
56083;SDS011;41958;52.416;13.428;2023-02-15T06:04:31;77.53;;;22.88;;
56083;SDS011;41958;52.416;13.428;2023-02-15T06:06:56;101.57;;;24.50;;
56083;SDS011;41958;52.416;13.428;2023-02-15T06:09:22;120.32;;;24.23;;
56083;SDS011;41958;52.416;13.428;2023-02-15T06:11:47;148.10;;;24.02;;
56083;SDS011;41958;52.416;13.428;2023-02-15T06:14:12;140.05;;;22.25;;
56083;SDS011;41958;52.416;13.428;2023-02-15T06:16:37;123.38;;;23.25;;
56083;SDS011;41958;52.416;13.428;2023-02-15T06:19:03;159.95;;;21.40;;
56083;SDS011;41958;52.416;13.428;2023-02-15T06:21:29;138.85;;;22.00;;
56083;SDS011;41958;52.416;13.428;2023-02-15T06:23:54;153.95;;;22.33;;
56083;SDS011;41958;52.416;13.428;2023-02-15T06:26:20;112.97;;;22.95;;
56083;SDS011;41958;52.416;13.428;2023-02-15T06:28:45;119.82;;;22.85;;
56083;SDS011;41958;52.416;13.428;2023-02-15T06:31:10;150.95;;;23.52;;
56083;SDS011;41958;52.416;13.428;2023-02-15T06:33:35;140.93;;;23.90;;
56083;SDS011;41958;52.416;13.428;2023-02-15T06:36:01;145.88;;;21.83;;
56083;SDS011;41958;52.416;13.428;2023-02-15T06:38:28;121.72;;;22.20;;
56083;SDS011;41958;52.416;13.428;2023-02-15T06:40:53;169.45;;;22.15;;
56083;SDS011;41958;52.416;13.428;2023-02-15T06:43:20;133.55;;;22.60;;
56083;SDS011;41958;52.416;13.428;2023-02-15T06:45:45;117.93;;;21.02;;
56083;SDS011;41958;52.416;13.428;2023-02-15T06:48:10;117.05;;;21.65;;
56083;SDS011;41958;52.416;13.428;2023-02-15T06:50:36;101.32;;;21.00;;
56083;SDS011;41958;52.416;13.428;2023-02-15T06:53:01;88.85;;;20.70;;
56083;SDS011;41958;52.416;13.428;2023-02-15T06:55:27;137.65;;;20.95;;
56083;SDS011;41958;52.416;13.428;2023-02-15T06:57:52;74.93;;;20.95;;
56083;SDS011;41958;52.416;13.428;2023-02-15T07:00:17;126.28;;;21.80;;
56083;SDS011;41958;52.416;13.428;2023-02-15T07:02:43;110.32;;;20.58;;
56083;SDS011;41958;52.416;13.428;2023-02-15T07:05:08;178.38;;;23.80;;
56083;SDS011;41958;52.416;13.428;2023-02-15T07:07:34;91.43;;;20.17;;
56083;SDS011;41958;52.416;13.428;2023-02-15T07:09:59;133.35;;;22.75;;
56083;SDS011;41958;52.416;13.428;2023-02-15T07:12:24;74.32;;;20.55;;
56083;SDS011;41958;52.416;13.428;2023-02-15T07:15:10;109.65;;;19.95;;
56083;SDS011;41958;52.416;13.428;2023-02-15T07:17:37;89.65;;;20.70;;
56083;SDS011;41958;52.416;13.428;2023-02-15T07:20:04;100.88;;;19.77;;
56083;SDS011;41958;52.416;13.428;2023-02-15T07:22:32;80.10;;;19.38;;
56083;SDS011;41958;52.416;13.428;2023-02-15T07:24:58;87.18;;;21.13;;
56083;SDS011;41958;52.416;13.428;2023-02-15T07:27:24;91.90;;;21.33;;
56083;SDS011;41958;52.416;13.428;2023-02-15T07:29:49;91.38;;;19.55;;
56083;SDS011;41958;52.416;13.428;2023-02-15T07:32:14;77.60;;;18.90;;
56083;SDS011;41958;52.416;13.428;2023-02-15T07:34:40;100.35;;;20.77;;
56083;SDS011;41958;52.416;13.428;2023-02-15T07:37:05;77.78;;;18.17;;
56083;SDS011;41958;52.416;13.428;2023-02-15T07:39:30;71.15;;;18.30;;
56083;SDS011;41958;52.416;13.428;2023-02-15T07:41:56;130.60;;;18.25;;
56083;SDS011;41958;52.416;13.428;2023-02-15T07:44:21;79.47;;;18.27;;
56083;SDS011;41958;52.416;13.428;2023-02-15T07:46:46;106.38;;;17.27;;
56083;SDS011;41958;52.416;13.428;2023-02-15T07:49:11;92.55;;;18.52;;
56083;SDS011;41958;52.416;13.428;2023-02-15T07:51:37;57.85;;;17.75;;
56083;SDS011;41958;52.416;13.428;2023-02-15T07:54:02;95.88;;;19.38;;
56083;SDS011;41958;52.416;13.428;2023-02-15T07:56:27;60.90;;;19.52;;
56083;SDS011;41958;52.416;13.428;2023-02-15T07:58:52;63.15;;;19.55;;
56083;SDS011;41958;52.416;13.428;2023-02-15T08:01:21;75.32;;;17.88;;
56083;SDS011;41958;52.416;13.428;2023-02-15T08:03:49;84.07;;;17.73;;
56083;SDS011;41958;52.416;13.428;2023-02-15T08:06:14;82.80;;;18.60;;
56083;SDS011;41958;52.416;13.428;2023-02-15T08:08:40;55.28;;;17.80;;
56083;SDS011;41958;52.416;13.428;2023-02-15T08:11:09;82.82;;;17.35;;
56083;SDS011;41958;52.416;13.428;2023-02-15T08:14:15;77.90;;;17.67;;
56083;SDS011;41958;52.416;13.428;2023-02-15T08:16:46;53.55;;;17.15;;
56083;SDS011;41958;52.416;13.428;2023-02-15T08:19:22;74.65;;;17.45;;
56083;SDS011;41958;52.416;13.428;2023-02-15T08:21:53;42.92;;;14.48;;
56083;SDS011;41958;52.416;13.428;2023-02-15T08:24:22;85.90;;;17.67;;
56083;SDS011;41958;52.416;13.428;2023-02-15T08:26:49;84.85;;;18.60;;
56083;SDS011;41958;52.416;13.428;2023-02-15T08:29:16;96.32;;;20.35;;
56083;SDS011;41958;52.416;13.428;2023-02-15T08:31:42;85.13;;;17.42;;
56083;SDS011;41958;52.416;13.428;2023-02-15T08:34:09;104.43;;;18.60;;
56083;SDS011;41958;52.416;13.428;2023-02-15T08:36:36;59.63;;;19.08;;
56083;SDS011;41958;52.416;13.428;2023-02-15T08:39:03;56.13;;;16.05;;
56083;SDS011;41958;52.416;13.428;2023-02-15T08:41:30;61.88;;;17.50;;
56083;SDS011;41958;52.416;13.428;2023-02-15T08:44:00;57.97;;;17.15;;
56083;SDS011;41958;52.416;13.428;2023-02-15T08:46:28;81.40;;;18.65;;
56083;SDS011;41958;52.416;13.428;2023-02-15T08:48:54;79.03;;;17.52;;
56083;SDS011;41958;52.416;13.428;2023-02-15T08:51:24;51.70;;;14.98;;
56083;SDS011;41958;52.416;13.428;2023-02-15T08:53:52;56.67;;;17.80;;
56083;SDS011;41958;52.416;13.428;2023-02-15T08:56:20;54.55;;;16.25;;
56083;SDS011;41958;52.416;13.428;2023-02-15T08:58:47;51.83;;;16.33;;
56083;SDS011;41958;52.416;13.428;2023-02-15T09:01:16;71.40;;;16.98;;
56083;SDS011;41958;52.416;13.428;2023-02-15T09:03:43;60.33;;;18.05;;
56083;SDS011;41958;52.416;13.428;2023-02-15T09:06:10;46.35;;;16.60;;
56083;SDS011;41958;52.416;13.428;2023-02-15T09:08:36;47.25;;;15.63;;
56083;SDS011;41958;52.416;13.428;2023-02-15T09:11:06;77.85;;;16.92;;
56083;SDS011;41958;52.416;13.428;2023-02-15T09:13:31;48.55;;;16.10;;
56083;SDS011;41958;52.416;13.428;2023-02-15T09:16:00;53.05;;;16.98;;
56083;SDS011;41958;52.416;13.428;2023-02-15T09:18:26;50.22;;;17.67;;
56083;SDS011;41958;52.416;13.428;2023-02-15T09:20:51;66.28;;;16.73;;
56083;SDS011;41958;52.416;13.428;2023-02-15T09:23:17;54.38;;;17.10;;
56083;SDS011;41958;52.416;13.428;2023-02-15T09:25:42;49.53;;;16.77;;
56083;SDS011;41958;52.416;13.428;2023-02-15T09:28:08;72.68;;;17.10;;
56083;SDS011;41958;52.416;13.428;2023-02-15T09:30:33;53.33;;;17.60;;
56083;SDS011;41958;52.416;13.428;2023-02-15T09:32:59;76.63;;;17.40;;
56083;SDS011;41958;52.416;13.428;2023-02-15T09:35:24;55.25;;;17.35;;
56083;SDS011;41958;52.416;13.428;2023-02-15T09:37:49;47.50;;;17.23;;
56083;SDS011;41958;52.416;13.428;2023-02-15T09:40:15;50.15;;;16.55;;
56083;SDS011;41958;52.416;13.428;2023-02-15T09:42:46;49.78;;;17.25;;
56083;SDS011;41958;52.416;13.428;2023-02-15T09:45:26;63.40;;;18.95;;
56083;SDS011;41958;52.416;13.428;2023-02-15T09:48:10;52.13;;;17.70;;
56083;SDS011;41958;52.416;13.428;2023-02-15T09:53:27;47.70;;;17.83;;
56083;SDS011;41958;52.416;13.428;2023-02-15T10:02:02;52.38;;;16.88;;
56083;SDS011;41958;52.416;13.428;2023-02-15T10:10:25;45.10;;;17.50;;
56083;SDS011;41958;52.416;13.428;2023-02-15T10:13:16;44.88;;;16.65;;
56083;SDS011;41958;52.416;13.428;2023-02-15T10:16:18;56.80;;;17.50;;
56083;SDS011;41958;52.416;13.428;2023-02-15T10:24:55;43.90;;;16.98;;
56083;SDS011;41958;52.416;13.428;2023-02-15T10:27:37;52.47;;;18.15;;
56083;SDS011;41958;52.416;13.428;2023-02-15T10:30:11;45.85;;;17.98;;
56083;SDS011;41958;52.416;13.428;2023-02-15T10:35:18;44.22;;;19.02;;
56083;SDS011;41958;52.416;13.428;2023-02-15T10:37:56;45.45;;;17.25;;
56083;SDS011;41958;52.416;13.428;2023-02-15T10:43:14;44.38;;;19.63;;
56083;SDS011;41958;52.416;13.428;2023-02-15T10:45:54;44.28;;;18.38;;
56083;SDS011;41958;52.416;13.428;2023-02-15T10:54:07;41.75;;;17.63;;
56083;SDS011;41958;52.416;13.428;2023-02-15T10:59:34;47.53;;;18.77;;
56083;SDS011;41958;52.416;13.428;2023-02-15T11:02:45;45.50;;;18.45;;
56083;SDS011;41958;52.416;13.428;2023-02-15T11:05:27;49.03;;;19.42;;
56083;SDS011;41958;52.416;13.428;2023-02-15T11:08:07;43.13;;;18.00;;
56083;SDS011;41958;52.416;13.428;2023-02-15T11:10:35;38.53;;;17.38;;
56083;SDS011;41958;52.416;13.428;2023-02-15T11:13:16;39.05;;;17.48;;
56083;SDS011;41958;52.416;13.428;2023-02-15T11:18:13;39.90;;;17.90;;
56083;SDS011;41958;52.416;13.428;2023-02-15T11:20:52;40.40;;;17.50;;
56083;SDS011;41958;52.416;13.428;2023-02-15T11:23:21;42.10;;;18.77;;
56083;SDS011;41958;52.416;13.428;2023-02-15T11:25:57;43.83;;;18.05;;
56083;SDS011;41958;52.416;13.428;2023-02-15T11:28:25;43.33;;;19.10;;
56083;SDS011;41958;52.416;13.428;2023-02-15T11:30:55;43.00;;;17.80;;
56083;SDS011;41958;52.416;13.428;2023-02-15T11:33:25;44.97;;;19.77;;
56083;SDS011;41958;52.416;13.428;2023-02-15T11:35:56;43.22;;;18.45;;
56083;SDS011;41958;52.416;13.428;2023-02-15T11:38:27;45.63;;;19.30;;
56083;SDS011;41958;52.416;13.428;2023-02-15T11:40:57;43.65;;;18.52;;
56083;SDS011;41958;52.416;13.428;2023-02-15T11:46:00;46.15;;;18.65;;
56083;SDS011;41958;52.416;13.428;2023-02-15T11:48:26;44.35;;;19.33;;
56083;SDS011;41958;52.416;13.428;2023-02-15T11:50:55;47.75;;;19.33;;
56083;SDS011;41958;52.416;13.428;2023-02-15T11:53:21;46.53;;;18.80;;
56083;SDS011;41958;52.416;13.428;2023-02-15T11:55:52;50.78;;;21.33;;
56083;SDS011;41958;52.416;13.428;2023-02-15T11:58:27;47.05;;;20.88;;
56083;SDS011;41958;52.416;13.428;2023-02-15T12:00:56;44.75;;;19.60;;
56083;SDS011;41958;52.416;13.428;2023-02-15T12:03:38;40.20;;;18.75;;
56083;SDS011;41958;52.416;13.428;2023-02-15T12:06:25;47.97;;;18.88;;
56083;SDS011;41958;52.416;13.428;2023-02-15T12:08:58;46.72;;;20.05;;
56083;SDS011;41958;52.416;13.428;2023-02-15T12:11:36;42.20;;;19.75;;
56083;SDS011;41958;52.416;13.428;2023-02-15T12:14:07;43.45;;;18.90;;
56083;SDS011;41958;52.416;13.428;2023-02-15T12:16:47;45.45;;;20.10;;
56083;SDS011;41958;52.416;13.428;2023-02-15T12:19:24;50.72;;;20.15;;
56083;SDS011;41958;52.416;13.428;2023-02-15T12:21:56;45.40;;;19.02;;
56083;SDS011;41958;52.416;13.428;2023-02-15T12:24:25;46.38;;;19.80;;
56083;SDS011;41958;52.416;13.428;2023-02-15T12:27:04;42.38;;;19.48;;
56083;SDS011;41958;52.416;13.428;2023-02-15T12:29:34;41.33;;;18.88;;
56083;SDS011;41958;52.416;13.428;2023-02-15T12:32:04;43.55;;;20.70;;
56083;SDS011;41958;52.416;13.428;2023-02-15T12:34:37;42.10;;;19.27;;
56083;SDS011;41958;52.416;13.428;2023-02-15T12:37:10;40.55;;;18.52;;
56083;SDS011;41958;52.416;13.428;2023-02-15T12:39:50;44.03;;;18.05;;
56083;SDS011;41958;52.416;13.428;2023-02-15T12:42:19;41.88;;;17.80;;
56083;SDS011;41958;52.416;13.428;2023-02-15T12:44:55;40.05;;;17.45;;
56083;SDS011;41958;52.416;13.428;2023-02-15T12:47:27;38.22;;;18.20;;
56083;SDS011;41958;52.416;13.428;2023-02-15T12:52:32;42.30;;;18.05;;
56083;SDS011;41958;52.416;13.428;2023-02-15T12:55:19;38.38;;;18.13;;
56083;SDS011;41958;52.416;13.428;2023-02-15T12:57:46;31.50;;;17.05;;
56083;SDS011;41958;52.416;13.428;2023-02-15T13:00:25;38.78;;;17.73;;
56083;SDS011;41958;52.416;13.428;2023-02-15T13:02:54;39.65;;;17.63;;
56083;SDS011;41958;52.416;13.428;2023-02-15T13:05:22;37.22;;;17.45;;
56083;SDS011;41958;52.416;13.428;2023-02-15T13:07:56;35.80;;;17.67;;
56083;SDS011;41958;52.416;13.428;2023-02-15T13:10:26;37.90;;;17.10;;
56083;SDS011;41958;52.416;13.428;2023-02-15T13:12:54;37.30;;;18.45;;
56083;SDS011;41958;52.416;13.428;2023-02-15T13:15:26;35.95;;;17.65;;
56083;SDS011;41958;52.416;13.428;2023-02-15T13:17:55;36.53;;;17.10;;
56083;SDS011;41958;52.416;13.428;2023-02-15T13:20:22;34.13;;;16.15;;
56083;SDS011;41958;52.416;13.428;2023-02-15T13:22:49;35.08;;;16.55;;
56083;SDS011;41958;52.416;13.428;2023-02-15T13:25:21;31.63;;;16.17;;
56083;SDS011;41958;52.416;13.428;2023-02-15T13:27:50;35.35;;;16.65;;
56083;SDS011;41958;52.416;13.428;2023-02-15T13:30:23;37.55;;;16.85;;
56083;SDS011;41958;52.416;13.428;2023-02-15T13:32:54;32.77;;;15.87;;
56083;SDS011;41958;52.416;13.428;2023-02-15T13:35:22;32.40;;;15.57;;
56083;SDS011;41958;52.416;13.428;2023-02-15T13:40:41;33.65;;;16.38;;
56083;SDS011;41958;52.416;13.428;2023-02-15T13:43:21;33.28;;;15.65;;
56083;SDS011;41958;52.416;13.428;2023-02-15T13:46:03;31.63;;;15.88;;
56083;SDS011;41958;52.416;13.428;2023-02-15T13:54:24;30.88;;;15.25;;
56083;SDS011;41958;52.416;13.428;2023-02-15T13:56:59;29.40;;;15.05;;
56083;SDS011;41958;52.416;13.428;2023-02-15T14:02:37;34.78;;;14.02;;
56083;SDS011;41958;52.416;13.428;2023-02-15T14:08:09;26.38;;;13.35;;
56083;SDS011;41958;52.416;13.428;2023-02-15T14:11:01;31.10;;;13.75;;
56083;SDS011;41958;52.416;13.428;2023-02-15T14:13:55;35.53;;;14.60;;
56083;SDS011;41958;52.416;13.428;2023-02-15T14:16:55;28.23;;;14.13;;
56083;SDS011;41958;52.416;13.428;2023-02-15T14:22:02;27.92;;;14.52;;
56083;SDS011;41958;52.416;13.428;2023-02-15T14:24:35;27.60;;;13.93;;
56083;SDS011;41958;52.416;13.428;2023-02-15T14:27:26;31.83;;;14.63;;
56083;SDS011;41958;52.416;13.428;2023-02-15T14:30:15;30.38;;;14.02;;
56083;SDS011;41958;52.416;13.428;2023-02-15T14:32:54;30.85;;;13.95;;
56083;SDS011;41958;52.416;13.428;2023-02-15T14:35:26;29.48;;;14.32;;
56083;SDS011;41958;52.416;13.428;2023-02-15T14:37:56;28.95;;;13.43;;
56083;SDS011;41958;52.416;13.428;2023-02-15T14:49:12;25.88;;;13.48;;
56083;SDS011;41958;52.416;13.428;2023-02-15T14:54:07;23.00;;;13.35;;
56083;SDS011;41958;52.416;13.428;2023-02-15T14:56:33;27.33;;;13.10;;
56083;SDS011;41958;52.416;13.428;2023-02-15T14:59:00;26.88;;;13.68;;
56083;SDS011;41958;52.416;13.428;2023-02-15T15:01:33;24.40;;;12.30;;
56083;SDS011;41958;52.416;13.428;2023-02-15T15:04:04;24.08;;;12.07;;
56083;SDS011;41958;52.416;13.428;2023-02-15T15:06:34;25.35;;;13.57;;
56083;SDS011;41958;52.416;13.428;2023-02-15T15:09:19;27.35;;;13.63;;
56083;SDS011;41958;52.416;13.428;2023-02-15T15:11:48;27.23;;;12.77;;
56083;SDS011;41958;52.416;13.428;2023-02-15T15:16:59;23.75;;;12.85;;
56083;SDS011;41958;52.416;13.428;2023-02-15T15:22:17;25.58;;;12.93;;
56083;SDS011;41958;52.416;13.428;2023-02-15T15:24:48;26.58;;;12.68;;
56083;SDS011;41958;52.416;13.428;2023-02-15T15:32:47;24.00;;;12.70;;
56083;SDS011;41958;52.416;13.428;2023-02-15T15:49:58;24.73;;;12.63;;
56083;SDS011;41958;52.416;13.428;2023-02-15T15:52:24;25.88;;;12.45;;
56083;SDS011;41958;52.416;13.428;2023-02-15T15:54:58;23.23;;;12.02;;
56083;SDS011;41958;52.416;13.428;2023-02-15T15:57:39;29.50;;;12.88;;
56083;SDS011;41958;52.416;13.428;2023-02-15T16:02:58;22.30;;;12.05;;
56083;SDS011;41958;52.416;13.428;2023-02-15T16:05:23;29.40;;;13.20;;
56083;SDS011;41958;52.416;13.428;2023-02-15T16:07:49;27.10;;;13.27;;
56083;SDS011;41958;52.416;13.428;2023-02-15T16:10:25;25.10;;;12.30;;
56083;SDS011;41958;52.416;13.428;2023-02-15T16:12:52;27.23;;;11.82;;
56083;SDS011;41958;52.416;13.428;2023-02-15T16:15:20;24.13;;;12.80;;
56083;SDS011;41958;52.416;13.428;2023-02-15T16:17:54;24.67;;;12.73;;
56083;SDS011;41958;52.416;13.428;2023-02-15T16:20:23;22.85;;;10.93;;
56083;SDS011;41958;52.416;13.428;2023-02-15T16:22:53;25.20;;;11.50;;
56083;SDS011;41958;52.416;13.428;2023-02-15T16:25:55;26.45;;;12.30;;
56083;SDS011;41958;52.416;13.428;2023-02-15T16:28:33;26.70;;;11.70;;
56083;SDS011;41958;52.416;13.428;2023-02-15T16:31:12;23.95;;;12.20;;
56083;SDS011;41958;52.416;13.428;2023-02-15T16:33:39;32.67;;;13.80;;
56083;SDS011;41958;52.416;13.428;2023-02-15T16:36:10;26.73;;;12.68;;
56083;SDS011;41958;52.416;13.428;2023-02-15T16:41:09;25.95;;;10.75;;
56083;SDS011;41958;52.416;13.428;2023-02-15T16:43:37;28.52;;;11.25;;
56083;SDS011;41958;52.416;13.428;2023-02-15T16:46:08;28.88;;;12.25;;
56083;SDS011;41958;52.416;13.428;2023-02-15T16:48:40;39.85;;;12.90;;